Federal Sable — V7WS4 — position and weather

sailwx.info

Track history (hours):
 
Tides and Currents Weather Stations Pressure Air Temp Water Temp Dewpoint Dewpoint Depression Visibility Wind Speed Wind Dir Waves Ship Positions

Federal Sable

Last reported at 2015-Feb-26 14:21 UTC. Time now 2015-Feb-28 01:57 UTC.
Position N 35°51' E 032°52'.

Length 190 m; draft 9.8 m.

Type: Cargo ship. MMSI: 538004380.

Date/timePositionNaut miles runAvg speedWind from/ knotsBaromVisibWave heightAir tempDewpointWater temp
2015-Feb-26 14:21N 35°51' E 032°52'35110.1
2015-Feb-25 03:33N 37°13' E 025°47'1212.3
2015-Feb-25 02:33N 37°17' E 025°32'1212.4
2015-Feb-25 01:33N 37°17' E 025°17'1212.4
2015-Feb-25 00:33N 37°15' E 025°01'1312.4
2015-Feb-24 23:30N 37°12' E 024°45'4911.7
2015-Feb-24 19:22N 37°31' E 023°49'1012.1
2015-Feb-24 18:33N 37°39' E 023°42'1111.5
2015-Feb-24 17:33N 37°49' E 023°35'3 3.4
2015-Feb-24 16:34N 37°50' E 023°31'0 0.1
2015-Feb-24 15:32N 37°50' E 023°31'0 0.1
2015-Feb-24 14:32N 37°50' E 023°31'0 0.0
2015-Feb-24 13:32N 37°50' E 023°31'0 0.0
2015-Feb-24 12:32N 37°50' E 023°31'4 4.1
2015-Feb-24 11:33N 37°51' E 023°36'1010.3
2015-Feb-24 10:33N 37°43' E 023°44'1211.8
2015-Feb-24 09:33N 37°31' E 023°46'44510.1
2015-Feb-22 13:32N 36°28' E 014°34'1111.2
2015-Feb-22 12:33N 36°33' E 014°22'1110.7
2015-Feb-22 11:33N 36°39' E 014°11'1110.6
2015-Feb-22 10:33N 36°44' E 013°59'1110.6
2015-Feb-22 09:33N 36°49' E 013°47'1111.1
2015-Feb-22 08:33N 36°54' E 013°35'1081449.3
2015-Feb-22 06:08N 50°21' W 002°59'  
2015-Feb-18 02:30N 36°13' W 005°08'1111.7
2015-Feb-18 01:33N 36°03' W 005°15'1211.6
2015-Feb-18 00:33N 35°58' W 005°28'236 9.6
2015-Feb-17 00:04N 37°46' W 009°50'712.5
2015-Feb-16 23:30N 37°53' W 009°52'1212.2
2015-Feb-16 22:32N 38°04' W 009°55'1312.5
2015-Feb-16 21:31N 38°17' W 009°59'1312.8
2015-Feb-16 20:27N 38°30' W 010°03'1112.6
2015-Feb-16 19:34N 38°41' W 010°06'1412.3
2015-Feb-16 18:26N 38°55' W 010°06'  
Track history (hours):
 
Tides and Currents Weather Stations Pressure Air Temp Water Temp Dewpoint Dewpoint Depression Visibility Wind Speed Wind Dir Waves Ship Positions

Federal Sable

Last reported at 2015-Feb-26 14:21 UTC. Time now 2015-Feb-28 01:57 UTC.
Position N 35°51' E 032°52'.

Length 190 m; draft 9.8 m.

Type: Cargo ship. MMSI: 538004380.

Date/timePositionNaut miles runAvg speedWind from/ knotsBaromVisibWave heightAir tempDewpointWater temp
2015-Feb-26 14:21N 35°51' E 032°52'35110.1
2015-Feb-25 03:33N 37°13' E 025°47'1212.3
2015-Feb-25 02:33N 37°17' E 025°32'1212.4
2015-Feb-25 01:33N 37°17' E 025°17'1212.4
2015-Feb-25 00:33N 37°15' E 025°01'1312.4
2015-Feb-24 23:30N 37°12' E 024°45'4911.7
2015-Feb-24 19:22N 37°31' E 023°49'1012.1
2015-Feb-24 18:33N 37°39' E 023°42'1111.5
2015-Feb-24 17:33N 37°49' E 023°35'3 3.4
2015-Feb-24 16:34N 37°50' E 023°31'0 0.1
2015-Feb-24 15:32N 37°50' E 023°31'0 0.1
2015-Feb-24 14:32N 37°50' E 023°31'0 0.0
2015-Feb-24 13:32N 37°50' E 023°31'0 0.0
2015-Feb-24 12:32N 37°50' E 023°31'4 4.1
2015-Feb-24 11:33N 37°51' E 023°36'1010.3
2015-Feb-24 10:33N 37°43' E 023°44'1211.8
2015-Feb-24 09:33N 37°31' E 023°46'44510.1
2015-Feb-22 13:32N 36°28' E 014°34'1111.2
2015-Feb-22 12:33N 36°33' E 014°22'1110.7
2015-Feb-22 11:33N 36°39' E 014°11'1110.6
2015-Feb-22 10:33N 36°44' E 013°59'1110.6
2015-Feb-22 09:33N 36°49' E 013°47'1111.1
2015-Feb-22 08:33N 36°54' E 013°35'1081449.3
2015-Feb-22 06:08N 50°21' W 002°59'  
2015-Feb-18 02:30N 36°13' W 005°08'1111.7
2015-Feb-18 01:33N 36°03' W 005°15'1211.6
2015-Feb-18 00:33N 35°58' W 005°28'236 9.6
2015-Feb-17 00:04N 37°46' W 009°50'712.5
2015-Feb-16 23:30N 37°53' W 009°52'1212.2
2015-Feb-16 22:32N 38°04' W 009°55'1312.5
2015-Feb-16 21:31N 38°17' W 009°59'1312.8
2015-Feb-16 20:27N 38°30' W 010°03'1112.6
2015-Feb-16 19:34N 38°41' W 010°06'1412.3
2015-Feb-16 18:26N 38°55' W 010°06'  

Dump ship's entire track history